Cammack Village, Arkansas
Current Conditions -  °F | °C
As of 10:53 PM on Thursday 30 Oct 2014 (Local Time) from KLIT Reporting Station
Few Clouds Few Clouds  
Wind Chill: 55°   Ceiling: Unl
Heat Index: 55°   Visibility: 10mi
Dew Point: 48°   Wind: 8mph
Humidity: 77%   Direction: 250°WSW
Pressure: 30.05"   Gusts: NA
Location:  34.7738°N, 92.3401°W
Report Text: KLIT 310353Z 25007KT 10SM FEW070 13/09 A3005 RMK AO2 SLP176 T01280089
Loading
Personal Weather Stations






























Interactive Weather Map
Tropical Storm Tracking
New forecast layout! Learn more

10-Day Weather Forecast

Advertisements
Track Severe Weather on mobile